createdAt,value
2023-02-03T00:00:16.563Z,6.54
2023-02-03T00:01:16.548Z,6.48
2023-02-03T00:03:53.242Z,6.56
2023-02-03T00:04:53.248Z,6.58
2023-02-03T00:05:53.236Z,6.43
2023-02-03T00:06:53.230Z,6.51
2023-02-03T00:07:53.208Z,6.50
2023-02-03T00:08:53.198Z,6.51
2023-02-03T00:09:53.198Z,6.51
2023-02-03T00:10:53.176Z,6.62
2023-02-03T00:11:53.187Z,6.53
2023-02-03T00:12:53.156Z,6.53
2023-02-03T00:13:54.135Z,6.66
2023-02-03T00:14:53.135Z,6.61
2023-02-03T00:15:53.132Z,6.50
2023-02-03T00:16:53.115Z,6.47
2023-02-03T00:17:53.159Z,6.58
2023-02-03T00:18:53.096Z,6.51
2023-02-03T00:19:53.090Z,6.68
2023-02-03T00:20:53.091Z,6.56
2023-02-03T00:21:53.070Z,6.43
2023-02-03T00:22:53.060Z,6.53
2023-02-03T00:23:53.046Z,6.48
2023-02-03T00:24:53.029Z,6.61
2023-02-03T00:25:53.027Z,6.48
2023-02-03T00:26:53.010Z,6.65
2023-02-03T00:27:53.047Z,6.53
2023-02-03T00:28:53.009Z,6.54
2023-02-03T00:29:52.981Z,6.63
2023-02-03T00:30:52.966Z,6.56
2023-02-03T00:31:53.068Z,6.62
2023-02-03T00:32:52.959Z,6.65
2023-02-03T00:33:52.944Z,6.68
2023-02-03T00:34:52.926Z,6.65
2023-02-03T00:35:52.914Z,6.65
2023-02-03T00:36:52.912Z,6.63
2023-02-03T00:37:52.910Z,6.69
2023-02-03T00:38:52.888Z,6.73
2023-02-03T00:39:52.875Z,6.66
2023-02-03T00:40:52.868Z,6.69
2023-02-03T00:41:52.858Z,6.71
2023-02-03T00:42:52.863Z,6.63
2023-02-03T00:43:52.834Z,6.69
2023-02-03T00:44:52.824Z,6.65
2023-02-03T00:45:52.849Z,6.68
2023-02-03T00:46:52.803Z,6.66
2023-02-03T00:47:52.799Z,6.66
2023-02-03T00:48:52.802Z,6.79
2023-02-03T00:49:52.785Z,6.81
2023-02-03T00:50:52.761Z,6.73
2023-02-03T00:51:52.757Z,6.80
2023-02-03T00:52:52.746Z,6.83
2023-02-03T00:53:52.746Z,6.83
2023-02-03T00:54:52.734Z,6.79
2023-02-03T00:55:52.729Z,6.84
2023-02-03T00:56:52.703Z,6.73
2023-02-03T00:57:52.692Z,6.90
2023-02-03T00:58:52.692Z,6.72
2023-02-03T00:59:52.675Z,6.73
2023-02-03T01:00:52.680Z,6.83
2023-02-03T01:01:52.713Z,6.79
2023-02-03T01:02:52.647Z,6.73
2023-02-03T01:03:52.647Z,6.71
2023-02-03T01:04:52.621Z,6.87
2023-02-03T01:05:52.612Z,6.77
2023-02-03T01:06:52.597Z,6.72
2023-02-03T01:07:52.593Z,6.83
2023-02-03T01:08:52.595Z,6.83
2023-02-03T01:09:52.572Z,6.84
2023-02-03T01:10:52.584Z,6.76
2023-02-03T01:11:52.574Z,6.79
2023-02-03T01:12:52.536Z,6.76
2023-02-03T01:13:52.538Z,6.80
2023-02-03T01:14:52.531Z,6.79
2023-02-03T01:15:52.564Z,6.83
2023-02-03T01:16:52.531Z,6.80
2023-02-03T01:17:52.489Z,6.80
2023-02-03T01:18:52.531Z,6.83
2023-02-03T01:19:52.467Z,6.77
2023-02-03T01:20:52.449Z,6.84
2023-02-03T01:21:52.441Z,6.81
2023-02-03T01:22:52.436Z,6.86
2023-02-03T01:23:52.438Z,6.77
2023-02-03T01:24:52.410Z,6.84
2023-02-03T01:25:52.403Z,6.84
2023-02-03T01:26:52.389Z,6.73
2023-02-03T01:27:52.437Z,6.87
2023-02-03T01:28:52.387Z,6.89
2023-02-03T01:29:52.362Z,6.83
2023-02-03T01:30:52.490Z,6.94
2023-02-03T01:31:52.444Z,6.97
2023-02-03T01:32:52.334Z,6.90
2023-02-03T01:33:52.329Z,6.84
2023-02-03T01:34:52.313Z,6.86
2023-02-03T01:35:52.300Z,6.87
2023-02-03T01:36:52.285Z,6.90
2023-02-03T01:37:52.287Z,6.87
2023-02-03T01:38:52.280Z,6.86
2023-02-03T01:39:52.257Z,6.87
2023-02-03T01:40:52.247Z,6.89
2023-02-03T01:41:52.239Z,6.79
2023-02-03T01:42:53.349Z,6.77
2023-02-03T01:43:53.354Z,6.83
2023-02-03T01:44:53.328Z,6.86
2023-02-03T01:45:53.356Z,6.77
2023-02-03T01:46:53.312Z,6.87
2023-02-03T01:47:53.300Z,6.79
2023-02-03T01:48:53.293Z,6.80
2023-02-03T01:49:53.271Z,6.79
2023-02-03T01:50:53.266Z,6.79
2023-02-03T01:51:53.253Z,6.79
2023-02-03T01:52:53.252Z,6.80
2023-02-03T01:53:53.252Z,6.79
2023-02-03T01:54:53.229Z,6.71
2023-02-03T01:55:53.213Z,6.76
2023-02-03T01:56:53.213Z,6.72
2023-02-03T01:57:53.198Z,6.72
2023-02-03T01:58:53.206Z,6.77
2023-02-03T01:59:53.180Z,6.73
2023-02-03T02:00:53.167Z,6.71
2023-02-03T02:01:53.166Z,6.83
2023-02-03T02:02:53.177Z,6.83
2023-02-03T02:03:53.148Z,6.84
2023-02-03T02:04:53.136Z,6.77
2023-02-03T02:05:53.118Z,6.77
2023-02-03T02:06:53.108Z,6.79
2023-02-03T02:07:53.097Z,6.87
2023-02-03T02:08:53.097Z,6.86
2023-02-03T02:09:53.098Z,6.86
2023-02-03T02:10:53.065Z,6.87
2023-02-03T02:11:53.064Z,6.83
2023-02-03T02:12:53.053Z,6.80
2023-02-03T02:13:53.039Z,6.86
2023-02-03T02:14:53.025Z,6.84
2023-02-03T02:15:53.051Z,6.81
2023-02-03T02:16:53.007Z,6.89
2023-02-03T02:17:52.988Z,6.83
2023-02-03T02:18:52.981Z,6.89
2023-02-03T02:19:52.982Z,6.91
2023-02-03T02:20:52.966Z,7.01
2023-02-03T02:21:52.946Z,6.84
2023-02-03T02:22:52.942Z,6.86
2023-02-03T02:23:52.930Z,6.90
2023-02-03T02:24:52.930Z,6.89
2023-02-03T02:25:52.913Z,6.84
2023-02-03T02:26:52.906Z,6.91
2023-02-03T02:27:52.911Z,6.91
2023-02-03T02:28:52.889Z,6.86
2023-02-03T02:29:52.883Z,6.86
2023-02-03T02:30:52.947Z,6.91
2023-02-03T02:31:52.898Z,6.84
2023-02-03T02:32:52.847Z,6.80
2023-02-03T02:33:52.831Z,6.95
2023-02-03T02:34:52.838Z,7.01
2023-02-03T02:35:52.824Z,6.97
2023-02-03T02:36:52.803Z,7.04
2023-02-03T02:37:52.795Z,7.02
2023-02-03T02:38:52.790Z,6.95
2023-02-03T02:39:52.800Z,6.98
2023-02-03T02:40:52.775Z,6.97
2023-02-03T02:41:52.767Z,6.81
2023-02-03T02:42:52.742Z,6.98
2023-02-03T02:43:52.727Z,6.94
2023-02-03T02:44:52.735Z,6.98
2023-02-03T02:45:52.740Z,6.97
2023-02-03T02:46:52.702Z,6.90
2023-02-03T02:47:52.708Z,6.97
2023-02-03T02:48:52.717Z,6.95
2023-02-03T02:49:52.702Z,6.94
2023-02-03T02:50:52.698Z,6.98
2023-02-03T02:51:52.658Z,6.95
2023-02-03T02:52:52.659Z,7.01
2023-02-03T02:53:52.637Z,7.12
2023-02-03T02:54:52.642Z,6.97
2023-02-03T02:55:52.616Z,7.02
2023-02-03T02:56:52.617Z,7.02
2023-02-03T02:57:52.586Z,7.01
2023-02-03T02:58:52.579Z,6.99
2023-02-03T02:59:52.568Z,7.02
2023-02-03T03:00:52.569Z,6.94
2023-02-03T03:01:52.609Z,6.99
2023-02-03T03:02:52.563Z,6.94
2023-02-03T03:03:52.545Z,6.94
2023-02-03T03:04:52.663Z,6.99
2023-02-03T03:05:52.533Z,7.05
2023-02-03T03:06:52.504Z,6.90
2023-02-03T03:07:52.488Z,6.83
2023-02-03T03:08:53.495Z,6.86
2023-02-03T03:09:52.480Z,6.86
2023-02-03T03:10:52.481Z,6.80
2023-02-03T03:11:52.463Z,6.94
2023-02-03T03:12:52.450Z,6.87
2023-02-03T03:13:52.446Z,6.90
2023-02-03T03:14:52.430Z,6.87
2023-02-03T03:15:52.454Z,6.90
2023-02-03T03:16:52.411Z,6.84
2023-02-03T03:17:52.400Z,6.97
2023-02-03T03:18:52.387Z,6.95
2023-02-03T03:19:52.380Z,6.95
2023-02-03T03:20:52.378Z,6.99
2023-02-03T03:21:52.365Z,6.94
2023-02-03T03:22:52.356Z,6.91
2023-02-03T03:23:52.388Z,6.95
2023-02-03T03:24:52.329Z,6.87
2023-02-03T03:25:52.340Z,6.98
2023-02-03T03:26:52.311Z,6.86
2023-02-03T03:27:52.326Z,6.87
2023-02-03T03:28:52.293Z,6.98
2023-02-03T03:29:52.282Z,6.87
2023-02-03T03:30:52.447Z,6.90
2023-02-03T03:31:52.302Z,6.90
2023-02-03T03:32:52.250Z,7.01
2023-02-03T03:33:52.243Z,6.99
2023-02-03T03:34:52.236Z,6.99
2023-02-03T03:35:52.235Z,6.97
2023-02-03T03:36:52.211Z,6.94
2023-02-03T03:37:52.205Z,6.95
2023-02-03T03:38:52.194Z,6.97
2023-02-03T03:39:52.181Z,6.94
2023-02-03T03:40:52.186Z,6.99
2023-02-03T03:41:52.168Z,6.90
2023-02-03T03:42:52.156Z,6.86
2023-02-03T03:43:52.150Z,6.97
2023-02-03T03:44:52.142Z,7.02
2023-02-03T03:45:52.134Z,6.97
2023-02-03T03:46:52.126Z,7.02
2023-02-03T03:47:52.109Z,7.01
2023-02-03T03:48:52.094Z,6.95
2023-02-03T03:49:52.084Z,7.02
2023-02-03T03:50:52.094Z,6.98
2023-02-03T03:51:52.061Z,6.91
2023-02-03T03:52:52.054Z,6.89
2023-02-03T03:53:52.047Z,6.97
2023-02-03T03:54:52.038Z,6.99
2023-02-03T03:55:52.041Z,6.90
2023-02-03T03:56:52.019Z,6.99
2023-02-03T03:57:52.003Z,7.04
2023-02-03T03:58:51.997Z,6.97
2023-02-03T03:59:51.988Z,7.07
2023-02-03T04:00:51.988Z,6.91
2023-02-03T04:01:52.104Z,6.95
2023-02-03T04:02:52.034Z,6.94
2023-02-03T04:03:51.947Z,7.04
2023-02-03T04:04:51.963Z,6.90
2023-02-03T04:05:51.939Z,6.99
2023-02-03T04:06:51.918Z,6.89
2023-02-03T04:07:51.903Z,7.02
2023-02-03T04:08:51.897Z,6.99
2023-02-03T04:09:51.890Z,7.04
2023-02-03T04:10:51.887Z,6.97
2023-02-03T04:11:51.870Z,7.04
2023-02-03T04:12:51.864Z,7.08
2023-02-03T04:13:51.857Z,6.98
2023-02-03T04:14:51.843Z,7.01
2023-02-03T04:15:51.943Z,7.13
2023-02-03T04:16:51.827Z,7.07
2023-02-03T04:17:51.811Z,7.07
2023-02-03T04:18:51.793Z,7.16
2023-02-03T04:19:51.797Z,7.12
2023-02-03T04:20:51.783Z,7.15
2023-02-03T04:21:51.781Z,7.17
2023-02-03T04:22:51.760Z,7.08
2023-02-03T04:23:51.750Z,7.15
2023-02-03T04:24:51.740Z,7.05
2023-02-03T04:25:51.735Z,7.15
2023-02-03T04:26:51.734Z,7.15
2023-02-03T04:27:51.742Z,7.05
2023-02-03T04:28:51.698Z,7.09
2023-02-03T04:29:51.694Z,7.08
2023-02-03T04:30:51.727Z,7.09
2023-02-03T04:31:51.759Z,7.09
2023-02-03T04:32:51.662Z,7.13
2023-02-03T04:33:51.657Z,6.91
2023-02-03T04:34:51.639Z,7.04
2023-02-03T04:35:51.627Z,7.16
2023-02-03T04:36:51.632Z,7.08
2023-02-03T04:37:51.628Z,7.09
2023-02-03T04:38:51.620Z,7.12
2023-02-03T04:39:51.589Z,7.19
2023-02-03T04:40:51.582Z,7.07
2023-02-03T04:41:51.596Z,7.12
2023-02-03T04:42:51.564Z,7.13
2023-02-03T04:43:51.561Z,7.12
2023-02-03T04:44:51.559Z,7.07
2023-02-03T04:45:51.602Z,7.09
2023-02-03T04:46:51.532Z,7.05
2023-02-03T04:47:54.149Z,7.13
2023-02-03T04:48:52.509Z,7.09
2023-02-03T04:49:51.505Z,6.91
2023-02-03T04:50:51.481Z,7.07
2023-02-03T04:51:51.481Z,7.04
2023-02-03T04:52:51.461Z,6.95
2023-02-03T04:53:51.455Z,7.04
2023-02-03T04:54:51.454Z,7.15
2023-02-03T04:55:51.432Z,7.08
2023-02-03T04:56:51.435Z,7.02
2023-02-03T04:57:51.413Z,7.09
2023-02-03T04:58:51.408Z,7.12
2023-02-03T04:59:51.391Z,7.13
2023-02-03T05:00:52.407Z,7.17
2023-02-03T05:01:51.400Z,7.13
2023-02-03T05:02:51.401Z,7.07
2023-02-03T05:03:51.357Z,7.08
2023-02-03T05:04:51.347Z,7.15
2023-02-03T05:05:51.343Z,7.15
2023-02-03T05:06:51.337Z,7.15
2023-02-03T05:07:51.311Z,7.15
2023-02-03T05:08:51.301Z,7.15
2023-02-03T05:09:51.295Z,7.07
2023-02-03T05:10:51.280Z,7.02
2023-02-03T05:11:51.290Z,7.02
2023-02-03T05:12:51.264Z,6.99
2023-02-03T05:13:51.258Z,7.05
2023-02-03T05:14:51.243Z,7.15
2023-02-03T05:15:51.248Z,7.13
2023-02-03T05:16:51.272Z,7.16
2023-02-03T05:17:51.221Z,7.08
2023-02-03T05:18:51.202Z,7.16
2023-02-03T05:19:51.263Z,7.13
2023-02-03T05:20:51.186Z,7.13
2023-02-03T05:21:51.392Z,7.17
2023-02-03T05:22:51.166Z,7.15
2023-02-03T05:23:51.164Z,7.17
2023-02-03T05:24:51.150Z,7.16
2023-02-03T05:25:51.135Z,7.13
2023-02-03T05:26:51.135Z,7.22
2023-02-03T05:27:51.151Z,7.16
2023-02-03T05:28:52.394Z,7.17
2023-02-03T05:29:51.099Z,7.08
2023-02-03T05:30:51.147Z,7.20
2023-02-03T05:31:51.117Z,7.20
2023-02-03T05:32:51.084Z,7.23
2023-02-03T05:33:51.053Z,7.26
2023-02-03T05:34:51.060Z,7.13
2023-02-03T05:35:51.039Z,7.23
2023-02-03T05:36:51.023Z,7.26
2023-02-03T05:37:52.023Z,7.20
2023-02-03T05:38:51.014Z,7.12
2023-02-03T05:39:51.007Z,7.13
2023-02-03T05:40:51.011Z,7.15
2023-02-03T05:41:50.972Z,7.24
2023-02-03T05:42:50.977Z,7.19
2023-02-03T05:43:50.952Z,7.24
2023-02-03T05:44:50.943Z,7.19
2023-02-03T05:45:50.987Z,7.20
2023-02-03T05:46:50.924Z,7.17
2023-02-03T05:47:50.926Z,7.16
2023-02-03T05:48:50.902Z,7.20
2023-02-03T05:49:50.899Z,7.23
2023-02-03T05:50:50.888Z,7.13
2023-02-03T05:51:50.880Z,7.19
2023-02-03T05:52:50.886Z,7.20
2023-02-03T05:53:50.872Z,7.15
2023-02-03T05:54:50.850Z,7.20
2023-02-03T05:55:50.835Z,7.17
2023-02-03T05:56:50.867Z,7.15
2023-02-03T05:57:50.843Z,7.26
2023-02-03T05:58:50.846Z,7.09
2023-02-03T05:59:50.816Z,7.22
2023-02-03T06:00:51.819Z,7.15
2023-02-03T06:01:50.793Z,7.12
2023-02-03T06:02:50.840Z,7.15
2023-02-03T06:03:50.946Z,7.08
2023-02-03T06:04:50.781Z,7.20
2023-02-03T06:05:50.750Z,7.13
2023-02-03T06:06:50.774Z,7.20
2023-02-03T06:07:50.753Z,7.12
2023-02-03T06:08:50.742Z,7.12
2023-02-03T06:09:50.718Z,7.13
2023-02-03T06:10:50.717Z,7.07
2023-02-03T06:11:50.696Z,7.12
2023-02-03T06:12:50.710Z,7.13
2023-02-03T06:13:50.685Z,7.15
2023-02-03T06:14:50.679Z,7.16
2023-02-03T06:15:50.661Z,7.12
2023-02-03T06:16:50.688Z,7.13
2023-02-03T06:17:50.676Z,7.09
2023-02-03T06:18:50.634Z,7.15
2023-02-03T06:19:50.616Z,7.15
2023-02-03T06:20:50.605Z,7.09
2023-02-03T06:21:50.598Z,7.13
2023-02-03T06:22:50.601Z,7.09
2023-02-03T06:23:50.573Z,7.07
2023-02-03T06:24:50.580Z,7.12
2023-02-03T06:25:50.584Z,7.17
2023-02-03T06:26:50.585Z,7.13
2023-02-03T06:27:50.615Z,7.19
2023-02-03T06:28:50.561Z,7.13
2023-02-03T06:29:50.567Z,7.26
2023-02-03T06:30:50.607Z,7.12
2023-02-03T06:31:50.699Z,7.22
2023-02-03T06:32:50.529Z,7.15
2023-02-03T06:33:50.524Z,7.19
2023-02-03T06:34:50.492Z,7.22
2023-02-03T06:35:50.489Z,7.24
2023-02-03T06:36:50.470Z,7.23
2023-02-03T06:37:50.488Z,7.26
2023-02-03T06:38:50.471Z,7.27
2023-02-03T06:39:50.451Z,7.23
2023-02-03T06:40:50.448Z,7.26
2023-02-03T06:41:50.464Z,7.20
2023-02-03T06:42:50.476Z,7.26
2023-02-03T06:43:50.557Z,7.26
2023-02-03T06:44:51.531Z,7.27
2023-02-03T06:45:50.491Z,7.37
2023-02-03T06:46:50.422Z,7.34
2023-02-03T06:47:50.444Z,7.27
2023-02-03T06:48:50.429Z,7.32
2023-02-03T06:49:50.447Z,7.27
2023-02-03T06:50:50.406Z,7.32
2023-02-03T06:51:50.395Z,7.37
2023-02-03T06:52:50.372Z,7.32
2023-02-03T06:53:50.371Z,7.23
2023-02-03T06:54:50.317Z,7.31
2023-02-03T06:55:50.580Z,7.45
2023-02-03T06:56:50.351Z,7.50
2023-02-03T06:57:50.402Z,7.47
2023-02-03T06:58:50.358Z,7.45
2023-02-03T06:59:50.295Z,7.55
2023-02-03T07:00:50.347Z,7.41
2023-02-03T07:01:50.388Z,7.42
2023-02-03T07:02:50.369Z,7.38
2023-02-03T07:03:50.293Z,7.41
2023-02-03T07:04:50.266Z,7.40
2023-02-03T07:05:50.323Z,7.42
2023-02-03T07:06:50.194Z,7.53
2023-02-03T07:07:50.249Z,7.38
2023-02-03T07:08:50.223Z,7.41
2023-02-03T07:09:50.212Z,7.58
2023-02-03T07:10:50.199Z,7.41
2023-02-03T07:11:50.228Z,7.55
2023-02-03T07:12:50.173Z,7.47
2023-02-03T07:13:50.182Z,7.50
2023-02-03T07:14:50.133Z,7.47
2023-02-03T07:15:50.176Z,7.49
2023-02-03T07:16:50.176Z,7.47
2023-02-03T07:17:50.162Z,7.41
2023-02-03T07:18:50.165Z,7.42
2023-02-03T07:19:50.195Z,7.45
2023-02-03T07:20:50.072Z,7.42
2023-02-03T07:21:50.065Z,7.45
2023-02-03T07:22:50.084Z,7.56
2023-02-03T07:23:50.084Z,7.42
2023-02-03T07:24:50.032Z,7.44
2023-02-03T07:25:50.007Z,7.42
2023-02-03T07:26:49.990Z,7.42
2023-02-03T07:27:50.036Z,7.49
2023-02-03T07:28:50.016Z,7.49
2023-02-03T07:29:50.025Z,7.38
2023-02-03T07:30:50.255Z,7.38
2023-02-03T07:31:50.044Z,7.49
2023-02-03T07:32:49.939Z,7.41
2023-02-03T07:33:49.931Z,7.47
2023-02-03T07:34:49.930Z,7.55
2023-02-03T07:35:49.884Z,7.38
2023-02-03T07:36:49.925Z,7.50
2023-02-03T07:37:49.886Z,7.42
2023-02-03T07:38:49.903Z,7.41
2023-02-03T07:39:49.878Z,7.47
2023-02-03T07:40:49.892Z,7.44
2023-02-03T07:41:49.830Z,7.59
2023-02-03T07:42:49.905Z,7.40
2023-02-03T07:43:49.794Z,7.50
2023-02-03T07:44:49.849Z,7.38
2023-02-03T07:45:49.810Z,7.50
2023-02-03T07:46:49.844Z,7.49
2023-02-03T07:47:49.782Z,7.55
2023-02-03T07:48:49.842Z,7.59
2023-02-03T07:49:49.917Z,7.49
2023-02-03T07:50:49.804Z,7.42
2023-02-03T07:51:49.804Z,7.50
2023-02-03T07:52:49.772Z,7.62
2023-02-03T07:53:49.727Z,7.50
2023-02-03T07:54:49.731Z,7.56
2023-02-03T07:55:49.739Z,7.63
2023-02-03T07:56:49.702Z,7.53
2023-02-03T07:57:49.678Z,7.55
2023-02-03T07:58:49.720Z,7.52
2023-02-03T07:59:49.679Z,7.44
2023-02-03T08:00:49.650Z,7.41
2023-02-03T08:01:49.738Z,7.55
2023-02-03T08:02:49.623Z,7.49
2023-02-03T08:03:49.632Z,7.45
2023-02-03T08:04:49.691Z,7.45
2023-02-03T08:05:49.643Z,7.56
2023-02-03T08:06:49.620Z,7.38
2023-02-03T08:07:49.591Z,7.40
2023-02-03T08:08:49.589Z,7.50
2023-02-03T08:09:49.605Z,7.42
2023-02-03T08:10:49.566Z,7.38
2023-02-03T08:11:49.639Z,7.53
2023-02-03T08:12:49.515Z,7.40
2023-02-03T08:13:49.577Z,7.52
2023-02-03T08:14:49.572Z,7.45
2023-02-03T08:15:49.610Z,7.42
2023-02-03T08:16:49.541Z,7.49
2023-02-03T08:17:49.474Z,7.50
2023-02-03T08:18:49.566Z,7.55
2023-02-03T08:19:49.546Z,7.55
2023-02-03T08:20:49.501Z,7.50
2023-02-03T08:21:49.419Z,7.52
2023-02-03T08:22:49.491Z,7.62
2023-02-03T08:23:49.407Z,7.58
2023-02-03T08:24:49.513Z,7.53
2023-02-03T08:25:49.414Z,7.56
2023-02-03T08:26:49.394Z,7.60
2023-02-03T08:27:49.442Z,7.71
2023-02-03T08:28:49.369Z,7.67
2023-02-03T08:29:50.178Z,7.67
2023-02-03T08:30:49.430Z,7.63
2023-02-03T08:31:49.352Z,7.62
2023-02-03T08:32:49.370Z,7.69
2023-02-03T08:33:49.375Z,7.71
2023-02-03T08:34:49.369Z,7.60
2023-02-03T08:35:49.364Z,7.77
2023-02-03T08:36:49.331Z,7.66
2023-02-03T08:37:49.303Z,7.67
2023-02-03T08:38:49.289Z,7.69
2023-02-03T08:39:49.322Z,7.67
2023-02-03T08:40:49.207Z,7.60
2023-02-03T08:41:49.252Z,7.62
2023-02-03T08:42:49.303Z,7.71
2023-02-03T08:43:49.190Z,7.72
2023-02-03T08:44:49.222Z,7.67
2023-02-03T08:45:49.328Z,7.71
2023-02-03T08:46:49.164Z,7.67
2023-02-03T08:47:49.193Z,7.62
2023-02-03T08:48:49.187Z,7.71
2023-02-03T08:49:49.164Z,7.59
2023-02-03T08:50:49.129Z,7.66
2023-02-03T08:51:49.146Z,7.58
2023-02-03T08:52:49.149Z,7.67
2023-02-03T08:53:49.117Z,7.78
2023-02-03T08:54:49.187Z,7.67
2023-02-03T08:55:49.126Z,7.66
2023-02-03T08:56:49.099Z,7.71
2023-02-03T08:57:49.054Z,7.66
2023-02-03T08:58:49.075Z,7.63
2023-02-03T08:59:49.056Z,7.58
2023-02-03T09:00:49.077Z,7.63
2023-02-03T09:01:49.032Z,7.74
2023-02-03T09:02:49.057Z,7.71
2023-02-03T09:03:49.037Z,7.60
2023-02-03T09:04:49.165Z,7.72
2023-02-03T09:05:49.015Z,7.63
2023-02-03T09:06:49.014Z,7.71
2023-02-03T09:07:48.972Z,7.72
2023-02-03T09:08:49.003Z,7.69
2023-02-03T09:09:48.936Z,7.77
2023-02-03T09:10:49.087Z,7.66
2023-02-03T09:11:48.993Z,7.78
2023-02-03T09:12:48.989Z,7.71
2023-02-03T09:13:48.895Z,7.78
2023-02-03T09:14:49.013Z,7.77
2023-02-03T09:15:48.952Z,7.74
2023-02-03T09:16:49.910Z,7.77
2023-02-03T09:17:48.858Z,7.84
2023-02-03T09:18:48.855Z,7.84
2023-02-03T09:19:48.935Z,7.89
2023-02-03T09:20:48.856Z,7.87
2023-02-03T09:21:48.855Z,7.89
2023-02-03T09:22:48.870Z,7.89
2023-02-03T09:23:48.805Z,7.87
2023-02-03T09:24:48.798Z,7.84
2023-02-03T09:25:49.589Z,7.94
2023-02-03T09:26:49.778Z,7.87
2023-02-03T09:27:49.803Z,7.97
2023-02-03T09:28:48.779Z,7.94
2023-02-03T09:29:48.732Z,7.99
2023-02-03T09:30:48.785Z,7.89
2023-02-03T09:31:48.782Z,7.92
2023-02-03T09:32:48.662Z,8.08
2023-02-03T09:33:48.658Z,7.97
2023-02-03T09:34:48.646Z,7.94
2023-02-03T09:35:48.639Z,7.99
2023-02-03T09:36:48.611Z,7.96
2023-02-03T09:37:48.632Z,8.00
2023-02-03T09:38:48.591Z,8.02
2023-02-03T09:39:48.583Z,8.02
2023-02-03T09:40:48.588Z,8.10
2023-02-03T09:41:48.585Z,8.03
2023-02-03T09:42:48.582Z,8.12
2023-02-03T09:43:55.112Z,8.14
2023-02-03T09:44:48.547Z,8.11
2023-02-03T09:45:48.631Z,8.08
2023-02-03T09:46:48.509Z,8.04
2023-02-03T09:47:48.495Z,8.04
2023-02-03T09:48:48.520Z,8.08
2023-02-03T09:49:49.202Z,8.11
2023-02-03T09:50:48.538Z,8.18
2023-02-03T09:51:48.476Z,8.08
2023-02-03T09:52:48.468Z,8.03
2023-02-03T09:53:48.485Z,8.07
2023-02-03T09:54:48.553Z,8.11
2023-02-03T09:55:48.517Z,8.03
2023-02-03T09:56:48.484Z,8.14
2023-02-03T09:57:48.462Z,8.10
2023-02-03T09:58:48.422Z,8.11
2023-02-03T09:59:49.189Z,8.02
2023-02-03T10:00:48.455Z,8.00
2023-02-03T10:01:48.426Z,8.03
2023-02-03T10:02:48.382Z,8.11
2023-02-03T10:03:48.408Z,8.07
2023-02-03T10:04:48.372Z,8.07
2023-02-03T10:05:48.394Z,8.12
2023-02-03T10:06:48.392Z,8.10
2023-02-03T10:07:50.740Z,8.02
2023-02-03T10:08:48.357Z,7.97
2023-02-03T10:09:48.288Z,7.99
2023-02-03T10:10:48.334Z,8.04
2023-02-03T10:11:48.282Z,8.18
2023-02-03T10:12:48.413Z,8.02
2023-02-03T10:13:48.292Z,8.04
2023-02-03T10:14:48.265Z,8.18
2023-02-03T10:15:48.880Z,8.17
2023-02-03T10:16:48.304Z,8.14
2023-02-03T10:17:48.289Z,8.12
2023-02-03T10:18:48.267Z,8.12
2023-02-03T10:19:48.191Z,8.03
2023-02-03T10:20:48.183Z,8.26
2023-02-03T10:21:48.244Z,8.12
2023-02-03T10:22:48.197Z,8.12
2023-02-03T10:23:48.180Z,8.11
2023-02-03T10:24:48.257Z,8.14
2023-02-03T10:25:48.297Z,8.22
2023-02-03T10:26:48.207Z,8.18
2023-02-03T10:27:48.193Z,8.17
2023-02-03T10:28:48.158Z,8.08
2023-02-03T10:29:48.140Z,8.20
2023-02-03T10:30:49.206Z,8.25
2023-02-03T10:31:48.311Z,8.20
2023-02-03T10:32:48.186Z,8.14
2023-02-03T10:33:48.106Z,8.11
2023-02-03T10:34:48.123Z,8.22
2023-02-03T10:36:21.968Z,8.21
2023-02-03T10:36:48.159Z,8.22
2023-02-03T10:37:48.085Z,8.28
2023-02-03T10:38:49.696Z,8.22
2023-02-03T10:39:48.144Z,8.22
2023-02-03T10:40:48.155Z,8.28
2023-02-03T10:41:48.042Z,8.17
2023-02-03T10:42:48.037Z,8.22
2023-02-03T10:43:47.987Z,8.20
2023-02-03T10:44:48.015Z,8.12
2023-02-03T10:45:48.035Z,8.17
2023-02-03T10:46:48.011Z,8.20
2023-02-03T10:47:47.956Z,8.21
2023-02-03T10:48:47.996Z,8.26
2023-02-03T10:49:48.206Z,8.21
2023-02-03T10:50:48.014Z,8.21
2023-02-03T10:51:48.013Z,8.26
2023-02-03T10:52:47.979Z,8.20
2023-02-03T10:53:47.925Z,8.28
2023-02-03T10:54:47.942Z,8.26
2023-02-03T10:55:47.870Z,8.25
2023-02-03T10:56:47.917Z,8.33
2023-02-03T10:57:47.942Z,8.28
2023-02-03T10:58:47.950Z,8.36
2023-02-03T10:59:47.891Z,8.40
2023-02-03T11:00:47.840Z,8.48
2023-02-03T11:01:48.901Z,8.45
2023-02-03T11:02:47.996Z,8.44
2023-02-03T11:03:47.855Z,8.44
2023-02-03T11:04:47.904Z,8.36
2023-02-03T11:05:47.836Z,8.39
2023-02-03T11:06:47.806Z,8.45
2023-02-03T11:07:47.790Z,8.57
2023-02-03T11:08:47.763Z,8.54
2023-02-03T11:09:47.882Z,8.58
2023-02-03T11:10:47.796Z,8.65
2023-02-03T11:11:47.773Z,8.81
2023-02-03T11:12:47.800Z,8.73
2023-02-03T11:13:47.748Z,8.65
2023-02-03T11:14:47.783Z,8.83
2023-02-03T11:15:47.819Z,8.76
2023-02-03T11:16:47.728Z,8.90
2023-02-03T11:17:47.684Z,8.88
2023-02-03T11:18:47.687Z,8.88
2023-02-03T11:19:47.722Z,8.96
2023-02-03T11:20:47.694Z,8.90
2023-02-03T11:21:47.700Z,8.87
2023-02-03T11:22:47.606Z,8.86
2023-02-03T11:23:47.555Z,8.81
2023-02-03T11:24:47.574Z,8.93
2023-02-03T11:25:47.541Z,8.71
2023-02-03T11:26:47.530Z,8.66
2023-02-03T11:27:47.579Z,8.78
2023-02-03T11:28:47.532Z,8.76
2023-02-03T11:29:47.479Z,8.72
2023-02-03T11:30:47.605Z,8.66
2023-02-03T11:31:47.593Z,8.72
2023-02-03T11:32:47.503Z,8.66
2023-02-03T11:33:47.478Z,8.63
2023-02-03T11:34:47.534Z,8.58
2023-02-03T11:35:47.471Z,8.66
2023-02-03T11:36:47.490Z,8.68
2023-02-03T11:37:47.416Z,8.71
2023-02-03T11:38:47.452Z,8.78
2023-02-03T11:39:47.441Z,8.68
2023-02-03T11:40:47.380Z,8.73
2023-02-03T11:41:47.380Z,8.69
2023-02-03T11:42:47.393Z,8.58
2023-02-03T11:43:47.363Z,8.75
2023-02-03T11:44:47.442Z,8.68
2023-02-03T11:45:47.404Z,8.65
2023-02-03T11:46:47.462Z,8.69
2023-02-03T11:47:47.423Z,8.72
2023-02-03T11:48:47.357Z,8.71
2023-02-03T11:49:47.371Z,8.71
2023-02-03T11:50:47.384Z,8.65
2023-02-03T11:51:47.382Z,8.68
2023-02-03T11:52:47.391Z,8.79
2023-02-03T11:53:56.560Z,8.79
2023-02-03T11:54:49.346Z,8.71
2023-02-03T11:55:47.313Z,8.76
2023-02-03T11:56:47.285Z,8.72
2023-02-03T11:57:47.366Z,8.72
2023-02-03T11:58:47.299Z,8.72
2023-02-03T11:59:47.283Z,8.75
2023-02-03T12:00:47.268Z,8.90
2023-02-03T12:01:47.275Z,8.78
2023-02-03T12:02:47.243Z,8.90
2023-02-03T12:03:47.253Z,8.86
2023-02-03T12:04:47.353Z,8.83
2023-02-03T12:05:47.219Z,8.73
2023-02-03T12:06:47.192Z,8.76
2023-02-03T12:07:47.224Z,8.76
2023-02-03T12:08:47.133Z,8.76
2023-02-03T12:09:47.127Z,8.79
2023-02-03T12:10:47.121Z,8.78
2023-02-03T12:11:47.233Z,8.78
2023-02-03T12:12:47.098Z,8.69
2023-02-03T12:13:47.113Z,8.76
2023-02-03T12:14:48.158Z,8.75
2023-02-03T12:15:47.138Z,8.73
2023-02-03T12:16:47.069Z,8.76
2023-02-03T12:17:47.120Z,8.86
2023-02-03T12:18:47.131Z,8.68
2023-02-03T12:19:47.058Z,8.76
2023-02-03T12:20:47.097Z,8.71
2023-02-03T12:21:47.026Z,8.72
2023-02-03T12:22:47.058Z,8.79
2023-02-03T12:23:47.045Z,8.69
2023-02-03T12:24:47.012Z,8.65
2023-02-03T12:25:47.024Z,8.72
2023-02-03T12:26:46.998Z,8.73
2023-02-03T12:27:47.013Z,8.73
2023-02-03T12:28:46.943Z,8.90
2023-02-03T12:29:46.936Z,8.87
2023-02-03T12:30:46.979Z,8.81
2023-02-03T12:31:46.953Z,8.88
2023-02-03T12:32:46.917Z,8.90
2023-02-03T12:33:46.951Z,8.88
2023-02-03T12:34:46.927Z,8.96
2023-02-03T12:35:46.929Z,8.87
2023-02-03T12:36:46.950Z,8.84
2023-02-03T12:37:46.858Z,8.93
2023-02-03T12:38:46.864Z,8.96
2023-02-03T12:39:46.841Z,8.78
2023-02-03T12:40:48.933Z,8.96
2023-02-03T12:41:47.812Z,8.87
2023-02-03T12:42:46.780Z,8.96
2023-02-03T12:43:48.538Z,8.91
2023-02-03T12:44:48.220Z,8.90
2023-02-03T12:45:46.804Z,8.96
2023-02-03T12:46:46.746Z,8.91
2023-02-03T12:47:49.925Z,9.01
2023-02-03T12:48:49.536Z,8.99
2023-02-03T12:49:49.038Z,8.84
2023-02-03T12:50:47.503Z,8.93
2023-02-03T12:53:09.635Z,8.84
2023-02-03T12:53:16.397Z,8.83
2023-02-03T12:54:17.137Z,8.94
2023-02-03T12:55:13.550Z,8.73
2023-02-03T12:56:12.192Z,8.75
2023-02-03T12:57:12.362Z,8.78
2023-02-03T12:58:15.174Z,8.84
2023-02-03T12:59:15.413Z,8.88
2023-02-03T13:00:11.533Z,8.72
2023-02-03T13:01:14.565Z,8.72
2023-02-03T13:02:12.427Z,8.81
2023-02-03T13:03:11.623Z,8.75
2023-02-03T13:04:12.372Z,8.81
2023-02-03T13:05:14.994Z,8.76
2023-02-03T13:06:13.200Z,8.83
2023-02-03T13:07:14.755Z,8.78
2023-02-03T13:08:13.540Z,8.76
2023-02-03T13:09:12.364Z,8.87
2023-02-03T13:10:13.509Z,8.88
2023-02-03T13:11:11.066Z,8.75
2023-02-03T13:12:11.058Z,8.86
2023-02-03T13:13:11.082Z,8.78
2023-02-03T13:14:11.000Z,8.75
2023-02-03T13:15:12.031Z,8.78
2023-02-03T13:16:12.042Z,8.87
2023-02-03T13:17:10.964Z,8.86
2023-02-03T13:18:10.950Z,8.78
2023-02-03T13:19:10.972Z,8.81
2023-02-03T13:20:10.906Z,8.81